Time;durP1;ratioP1;P1;durP2;ratioP2;P2;SDS_P1;SDS_P2;PMS_P1;PMS_P2;Temp;Humidity;BMP_temperature;BMP_pressure;BME280_temperature;BME280_humidity;BME280_pressure;Samples;Min_cycle;Max_cycle;Signal;HPM_P1;HPM_P2
2023/06/30 00:02:24;;;;;;;;;9.33;7.33;;;;;22.33;58.77;101034.88;5046774;28;47044;-70
2023/06/30 00:04:50;;;;;;;;;9.33;7.67;;;;;22.26;57.98;101024.03;5070494;28;45337;-71
2023/06/30 00:07:20;;;;;;;;;15.33;12.33;;;;;22.27;57.54;101036.75;5070764;28;45368;-69
2023/06/30 00:09:47;;;;;;;;;12.33;11.67;;;;;22.20;57.63;101034.13;5071242;28;45604;-70
2023/06/30 00:12:12;;;;;;;;;13.00;11.67;;;;;22.13;56.99;101025.19;5075200;27;45554;-70
2023/06/30 00:14:37;;;;;;;;;8.00;6.67;;;;;22.10;56.93;101017.06;5059890;28;45280;-71
2023/06/30 00:17:03;;;;;;;;;8.00;8.00;;;;;22.12;56.87;101030.66;5075813;27;45531;-70
2023/06/30 00:19:29;;;;;;;;;12.33;8.67;;;;;22.11;56.98;101021.59;5056254;28;45456;-69
2023/06/30 00:21:55;;;;;;;;;10.33;7.00;;;;;22.10;56.80;101033.41;5079624;28;45505;-70
2023/06/30 00:24:21;;;;;;;;;9.00;6.67;;;;;22.02;57.14;101025.34;5077583;27;45310;-69
2023/06/30 00:26:46;;;;;;;;;11.67;10.00;;;;;21.99;57.07;101013.63;5079697;28;45340;-71
2023/06/30 00:29:12;;;;;;;;;18.33;14.00;;;;;22.10;57.29;101025.22;5084156;27;44912;-70
2023/06/30 00:31:37;;;;;;;;;11.33;10.00;;;;;22.10;56.43;101027.94;5078178;28;45279;-69
2023/06/30 00:34:02;;;;;;;;;7.33;5.33;;;;;22.09;56.13;101028.88;5070004;28;45357;-70
2023/06/30 00:36:31;;;;;;;;;5.00;5.00;;;;;21.94;56.08;101015.53;5080372;28;45603;-71
2023/06/30 00:38:57;;;;;;;;;10.00;4.00;;;;;21.91;55.80;101016.50;5087454;28;45535;-71
2023/06/30 00:41:22;;;;;;;;;5.33;5.33;;;;;21.90;55.77;101018.28;5084655;28;45021;-70
2023/06/30 00:43:47;;;;;;;;;3.67;3.00;;;;;21.95;55.76;101033.66;5092096;28;45000;-71
2023/06/30 00:46:16;;;;;;;;;2.67;1.00;;;;;21.92;55.93;101029.16;5092554;27;45082;-69
2023/06/30 00:48:42;;;;;;;;;3.00;1.00;;;;;21.95;55.58;101033.66;5091017;27;45180;-71
2023/06/30 00:51:09;;;;;;;;;1.67;1.67;;;;;21.89;55.44;101037.34;5091693;28;45818;-70
2023/06/30 00:53:34;;;;;;;;;3.67;2.00;;;;;21.84;55.57;101029.25;5089656;27;45476;-71
2023/06/30 00:56:00;;;;;;;;;2.00;2.00;;;;;21.91;55.77;101040.97;5075857;27;45315;-71
2023/06/30 00:58:25;;;;;;;;;2.00;2.00;;;;;21.94;55.56;101038.19;5082858;27;45450;-71
2023/06/30 01:00:54;;;;;;;;;5.00;4.00;;;;;21.87;55.36;101028.34;5085937;28;45143;-71
2023/06/30 01:03:30;;;;;;;;;2.67;2.67;;;;;21.94;55.60;101050.91;5090697;27;44970;-71
2023/06/30 01:06:03;;;;;;;;;2.00;2.00;;;;;21.98;54.27;101049.94;5081766;27;45518;-71
2023/06/30 01:08:50;;;;;;;;;3.33;2.00;;;;;21.94;54.55;101062.66;5083908;28;45304;-70
2023/06/30 01:11:17;;;;;;;;;3.67;3.33;;;;;21.83;54.34;101045.63;5075938;27;45833;-71
2023/06/30 01:13:44;;;;;;;;;7.33;6.33;;;;;21.89;54.13;101065.47;5084239;27;45389;-71
2023/06/30 01:16:15;;;;;;;;;6.67;6.67;;;;;21.81;54.22;101050.19;5068633;28;45079;-70
2023/06/30 01:18:44;;;;;;;;;5.33;5.33;;;;;21.79;54.63;101054.75;5058462;28;45305;-70
2023/06/30 01:21:13;;;;;;;;;2.33;2.33;;;;;21.74;54.49;101052.09;5070429;27;45672;-70
2023/06/30 01:23:45;;;;;;;;;3.67;3.67;;;;;21.61;54.73;101050.47;5088892;27;45148;-70
2023/06/30 01:26:11;;;;;;;;;2.67;2.67;;;;;21.56;54.97;101065.97;5075491;28;45450;-69
2023/06/30 01:28:37;;;;;;;;;3.00;2.00;;;;;21.59;54.89;101064.09;5072873;28;45715;-70
2023/06/30 01:31:08;;;;;;;;;3.67;3.67;;;;;21.63;54.64;101070.38;5083472;27;45672;-70
2023/06/30 01:33:36;;;;;;;;;4.33;3.00;;;;;21.62;54.50;101068.59;5089544;28;45039;-68
2023/06/30 01:36:02;;;;;;;;;7.67;4.33;;;;;21.58;54.65;101056.88;5076266;27;46119;-71
2023/06/30 01:38:27;;;;;;;;;3.33;3.33;;;;;21.58;54.52;101059.59;5077972;27;45503;-71
2023/06/30 01:40:53;;;;;;;;;5.00;3.00;;;;;21.59;54.56;101066.81;5086943;28;45956;-69
2023/06/30 01:43:19;;;;;;;;;3.00;3.00;;;;;21.56;54.45;101079.56;5083402;27;45311;-71
2023/06/30 01:45:44;;;;;;;;;2.67;2.67;;;;;21.56;54.39;101074.13;5089424;28;45211;-69
2023/06/30 01:48:10;;;;;;;;;5.00;5.00;;;;;21.54;54.16;101077.75;5084100;28;45435;-71
2023/06/30 01:50:36;;;;;;;;;5.67;5.67;;;;;21.52;54.24;101076.00;5088396;27;45367;-70
2023/06/30 01:53:01;;;;;;;;;8.00;8.00;;;;;21.32;54.20;101049.94;5082635;28;45890;-70
2023/06/30 01:55:27;;;;;;;;;9.00;9.00;;;;;21.46;54.08;101068.75;5090295;27;45052;-68
2023/06/30 01:57:52;;;;;;;;;10.33;9.00;;;;;21.38;54.28;101070.69;5085131;28;45204;-71
2023/06/30 02:00:18;;;;;;;;;13.00;12.00;;;;;21.35;54.47;101063.50;5073478;28;45414;-70
2023/06/30 02:02:43;;;;;;;;;21.75;19.50;;;;;21.34;54.42;101063.50;5085699;28;45698;-69
2023/06/30 02:05:09;;;;;;;;;12.67;9.67;;;;;21.32;54.12;101054.47;5088578;27;45331;-70
2023/06/30 02:07:35;;;;;;;;;14.33;12.33;;;;;21.37;54.04;101058.03;5090290;27;44980;-71
2023/06/30 02:10:01;;;;;;;;;15.33;10.00;;;;;21.32;54.14;101063.53;5087587;27;49183;-68
2023/06/30 02:12:26;;;;;;;;;6.67;5.00;;;;;21.23;54.20;101047.31;5079080;28;45146;-70
2023/06/30 02:14:52;;;;;;;;;6.00;6.00;;;;;21.27;54.14;101057.25;5088629;27;45125;-69
2023/06/30 02:17:26;;;;;;;;;6.00;6.00;;;;;21.30;54.41;101068.09;5067578;28;46568;-71
2023/06/30 02:19:51;;;;;;;;;7.00;4.00;;;;;21.27;54.15;101059.97;5076763;28;45333;-70
2023/06/30 02:22:16;;;;;;;;;3.67;3.67;;;;;21.29;53.82;101063.56;5091898;28;45510;-71
2023/06/30 02:24:42;;;;;;;;;4.67;3.67;;;;;21.32;53.67;101073.50;5081626;28;45026;-69
2023/06/30 02:27:08;;;;;;;;;3.00;3.00;;;;;21.26;53.67;101063.59;5070899;28;45306;-71
2023/06/30 02:29:36;;;;;;;;;3.00;3.00;;;;;21.11;53.78;101051.09;5068831;28;46513;-71
2023/06/30 02:32:01;;;;;;;;;4.67;4.67;;;;;21.21;54.07;101079.06;5090680;28;44948;-70
2023/06/30 02:34:26;;;;;;;;;4.33;3.33;;;;;21.14;54.39;101077.34;5089806;27;45019;-71
2023/06/30 02:36:52;;;;;;;;;2.33;2.33;;;;;21.06;54.20;101065.69;5091013;28;44901;-71
2023/06/30 02:39:18;;;;;;;;;4.00;4.00;;;;;21.12;54.01;101080.09;5088648;28;45971;-70
2023/06/30 02:41:43;;;;;;;;;8.00;6.00;;;;;21.16;54.29;101092.69;5084512;28;45057;-69
2023/06/30 02:44:08;;;;;;;;;6.00;6.00;;;;;21.09;54.02;101071.97;5091045;28;44976;-71
2023/06/30 02:46:34;;;;;;;;;5.00;4.00;;;;;21.14;53.97;101090.94;5091286;28;44936;-71
2023/06/30 02:48:59;;;;;;;;;6.00;4.67;;;;;21.11;53.85;101074.66;5090536;27;46079;-71
2023/06/30 02:51:24;;;;;;;;;4.67;3.33;;;;;21.10;53.82;101073.78;5072302;28;45014;-69
2023/06/30 02:53:50;;;;;;;;;2.00;2.00;;;;;21.05;53.83;101066.56;5090248;28;45252;-69
2023/06/30 02:56:15;;;;;;;;;3.67;3.00;;;;;21.11;54.02;101074.66;5090952;27;45142;-70
2023/06/30 02:58:40;;;;;;;;;4.00;3.33;;;;;21.10;53.66;101083.72;5086881;28;63160;-72
2023/06/30 03:01:06;;;;;;;;;3.00;3.00;;;;;21.01;53.58;101071.16;5089619;28;45084;-70
2023/06/30 03:03:32;;;;;;;;;2.00;2.00;;;;;21.05;53.85;101066.56;5091069;27;45253;-69
2023/06/30 03:05:58;;;;;;;;;7.00;6.00;;;;;21.09;53.37;101071.06;5086303;28;45460;-71
2023/06/30 03:08:23;;;;;;;;;7.33;7.00;;;;;21.09;53.35;101065.66;5090524;28;44978;-72
2023/06/30 03:10:49;;;;;;;;;1.33;1.33;;;;;21.10;53.17;101067.41;5090427;28;58642;-69
2023/06/30 03:13:14;;;;;;;;;3.67;2.00;;;;;21.07;52.75;101072.88;5090839;28;45123;-71
2023/06/30 03:15:39;;;;;;;;;3.00;2.67;;;;;21.06;53.10;101066.56;5080446;28;47830;-71
2023/06/30 03:18:05;;;;;;;;;2.33;2.33;;;;;21.07;52.78;101075.59;5078272;28;45621;-69
2023/06/30 03:20:30;;;;;;;;;3.67;3.67;;;;;21.06;52.67;101068.41;5090878;27;45194;-69
2023/06/30 03:22:57;;;;;;;;;2.67;2.67;;;;;21.06;52.80;101063.84;5088339;28;45393;-70
2023/06/30 03:25:22;;;;;;;;;2.00;2.00;;;;;21.03;52.50;101071.13;5081740;28;45090;-70
2023/06/30 03:27:47;;;;;;;;;4.67;4.00;;;;;20.96;52.54;101056.72;5075801;28;45717;-71
2023/06/30 03:30:13;;;;;;;;;2.00;2.00;;;;;21.02;52.62;101067.53;5072339;28;46717;-70
2023/06/30 03:32:38;;;;;;;;;4.00;4.00;;;;;20.97;52.73;101064.88;5071184;27;45385;-71
2023/06/30 03:35:04;;;;;;;;;3.00;3.00;;;;;20.86;52.72;101038.75;5075343;27;45451;-70
2023/06/30 03:37:30;;;;;;;;;2.67;2.67;;;;;20.90;52.25;101037.78;5074484;28;45529;-69
2023/06/30 03:39:56;;;;;;;;;6.00;4.67;;;;;20.84;52.54;101038.75;5074839;28;45709;-71
2023/06/30 03:42:22;;;;;;;;;5.00;4.00;;;;;20.95;52.94;101052.19;5070590;28;45554;-69
2023/06/30 03:44:47;;;;;;;;;6.00;5.33;;;;;20.93;52.77;101052.22;5064804;28;45579;-70
2023/06/30 03:47:12;;;;;;;;;5.67;4.67;;;;;20.85;53.11;101039.66;5073100;28;45457;-69
2023/06/30 03:49:38;;;;;;;;;6.33;5.67;;;;;20.90;53.04;101056.78;5069116;28;45669;-69
2023/06/30 03:52:04;;;;;;;;;7.00;7.00;;;;;20.52;52.85;101001.94;5071645;27;47242;-71
2023/06/30 03:54:29;;;;;;;;;6.00;6.00;;;;;20.80;53.05;101056.00;5075948;27;45829;-68
2023/06/30 03:56:56;;;;;;;;;11.00;7.33;;;;;20.79;52.91;101054.22;5075453;28;46222;-70
2023/06/30 03:59:22;;;;;;;;;10.33;6.33;;;;;20.75;52.52;101063.28;5075993;28;45457;-70
2023/06/30 04:01:48;;;;;;;;;5.33;5.33;;;;;20.74;52.73;101059.69;5075612;27;45477;-69
2023/06/30 04:04:14;;;;;;;;;6.33;4.00;;;;;20.73;52.68;101055.16;5071046;28;45421;-70
2023/06/30 04:06:39;;;;;;;;;5.33;4.00;;;;;20.69;52.63;101064.28;5069826;28;45412;-69
2023/06/30 04:09:05;;;;;;;;;6.00;6.00;;;;;20.69;52.54;101063.34;5075664;28;45364;-71
2023/06/30 04:11:30;;;;;;;;;5.67;5.67;;;;;20.60;52.18;101048.03;5075489;27;45413;-70
2023/06/30 04:13:59;;;;;;;;;5.00;5.00;;;;;20.68;52.11;101069.72;5075666;28;45417;-69
2023/06/30 04:16:24;;;;;;;;;4.00;4.00;;;;;20.64;51.65;101065.22;5075162;27;46212;-69
2023/06/30 04:18:49;;;;;;;;;4.67;3.67;;;;;20.64;51.81;101066.13;5073563;28;45373;-71
2023/06/30 04:21:15;;;;;;;;;5.00;4.33;;;;;20.66;51.73;101067.00;5075260;28;45346;-71
2023/06/30 04:23:40;;;;;;;;;6.00;4.67;;;;;20.64;51.78;101066.13;5076178;27;45425;-71
2023/06/30 04:26:05;;;;;;;;;3.67;3.67;;;;;20.66;51.70;101068.84;5060870;28;46424;-70
2023/06/30 04:28:31;;;;;;;;;5.33;5.00;;;;;20.64;51.39;101074.28;5073975;28;54410;-68
2023/06/30 04:30:58;;;;;;;;;3.33;3.33;;;;;20.60;51.42;101067.91;5075483;28;45429;-70
2023/06/30 04:33:23;;;;;;;;;4.67;4.67;;;;;20.54;51.58;101057.16;5075969;28;45341;-67
2023/06/30 04:35:49;;;;;;;;;5.67;5.67;;;;;20.63;51.12;101072.47;5058213;28;46087;-70
2023/06/30 04:38:14;;;;;;;;;7.00;4.67;;;;;20.64;51.44;101077.00;5075461;27;47613;-71
2023/06/30 04:40:39;;;;;;;;;5.33;5.33;;;;;20.64;51.50;101070.66;5073958;27;45583;-70
2023/06/30 04:43:12;;;;;;;;;5.00;5.00;;;;;20.60;51.41;101065.22;5047761;28;45549;-70
2023/06/30 04:45:37;;;;;;;;;4.00;3.00;;;;;20.67;51.20;101066.06;5069955;27;47539;-69
2023/06/30 04:48:03;;;;;;;;;4.67;4.33;;;;;20.65;51.03;101056.16;5075150;27;45298;-70
2023/06/30 04:50:28;;;;;;;;;4.33;4.33;;;;;20.63;51.29;101056.19;5075117;28;45326;-71
2023/06/30 04:52:54;;;;;;;;;5.67;5.67;;;;;20.61;51.37;101056.16;5075161;27;45377;-69
2023/06/30 04:55:19;;;;;;;;;7.67;6.00;;;;;20.65;50.97;101065.19;5070209;27;46451;-70
2023/06/30 04:57:44;;;;;;;;;6.33;6.00;;;;;20.61;51.12;101060.69;5066649;27;45440;-71
2023/06/30 05:00:10;;;;;;;;;20.00;13.33;;;;;20.55;51.45;101053.50;5066033;28;45297;-69
2023/06/30 05:02:36;;;;;;;;;19.25;14.75;;;;;20.58;51.34;101055.28;5072754;27;45458;-69
2023/06/30 05:05:01;;;;;;;;;8.00;7.00;;;;;20.50;52.03;101049.94;5074407;28;46216;-68
2023/06/30 05:07:27;;;;;;;;;8.67;5.33;;;;;20.55;52.32;101049.91;5052812;28;45694;-71
2023/06/30 05:09:52;;;;;;;;;10.67;10.33;;;;;20.55;52.19;101056.22;5069326;28;45492;-68
2023/06/30 05:12:17;;;;;;;;;10.33;8.00;;;;;20.50;52.25;101049.94;5071468;28;45423;-71
2023/06/30 05:14:43;;;;;;;;;5.00;5.00;;;;;20.58;52.13;101053.47;5051173;28;47373;-69
2023/06/30 05:17:08;;;;;;;;;8.33;7.33;;;;;20.59;52.03;101052.56;5073850;28;45298;-69
2023/06/30 05:19:33;;;;;;;;;11.33;9.67;;;;;20.58;52.15;101056.19;5054332;28;57729;-71
2023/06/30 05:21:58;;;;;;;;;15.00;9.67;;;;;20.64;52.56;101059.78;5074658;28;45545;-71
2023/06/30 05:24:24;;;;;;;;;11.00;9.33;;;;;20.64;52.21;101065.22;5067255;27;56996;-70
2023/06/30 05:26:49;;;;;;;;;8.33;7.67;;;;;20.68;52.19;101069.72;5073628;27;45536;-71
2023/06/30 05:29:15;;;;;;;;;8.67;8.00;;;;;20.60;52.14;101065.22;5063233;28;45594;-71
2023/06/30 05:31:40;;;;;;;;;6.33;5.67;;;;;20.64;52.16;101071.56;5069688;27;45730;-70
2023/06/30 05:34:05;;;;;;;;;7.00;6.00;;;;;20.51;52.46;101054.47;5071006;28;60857;-70
2023/06/30 05:36:31;;;;;;;;;6.67;6.67;;;;;20.61;53.27;101068.84;5075932;28;45448;-71
2023/06/30 05:38:57;;;;;;;;;6.33;6.33;;;;;20.59;53.97;101068.84;5077016;28;45454;-71
2023/06/30 05:41:22;;;;;;;;;7.00;6.00;;;;;20.62;53.98;101065.19;5070289;28;45521;-71
2023/06/30 05:43:47;;;;;;;;;5.33;5.33;;;;;20.51;53.89;101067.09;5076131;28;47862;-71
2023/06/30 05:46:13;;;;;;;;;10.33;7.67;;;;;20.57;54.13;101076.13;5074256;27;45318;-70
2023/06/30 05:48:38;;;;;;;;;10.33;8.33;;;;;20.60;53.57;101069.75;5068805;27;45395;-70
2023/06/30 05:51:03;;;;;;;;;10.00;7.00;;;;;20.65;53.67;101069.75;5065788;28;45369;-71
2023/06/30 05:53:29;;;;;;;;;13.33;11.00;;;;;20.66;53.69;101064.31;5074446;28;46019;-70
2023/06/30 05:55:55;;;;;;;;;7.67;7.00;;;;;20.71;53.62;101067.88;5071661;28;45424;-71
2023/06/30 05:58:21;;;;;;;;;4.00;4.00;;;;;20.76;53.70;101073.25;5067121;28;45448;-72
2023/06/30 06:00:46;;;;;;;;;6.00;5.00;;;;;20.84;53.14;101078.59;5075160;28;45538;-69
2023/06/30 06:03:12;;;;;;;;;5.67;5.67;;;;;20.77;53.39;101070.53;5071629;27;45444;-78
2023/06/30 06:05:37;;;;;;;;;5.00;5.00;;;;;20.83;53.71;101085.84;5082868;27;45395;-80
2023/06/30 06:08:03;;;;;;;;;5.00;5.00;;;;;20.82;53.49;101075.00;5079018;27;45315;-76
2023/06/30 06:10:28;;;;;;;;;6.00;5.33;;;;;20.74;53.55;101056.97;5071371;28;45556;-77
2023/06/30 06:12:54;;;;;;;;;14.00;12.67;;;;;20.86;53.24;101077.66;5056390;28;47601;-79
2023/06/30 06:15:19;;;;;;;;;6.67;4.00;;;;;20.74;52.88;101058.75;5083082;27;45655;-78
2023/06/30 06:17:44;;;;;;;;;10.67;9.00;;;;;20.76;53.01;101055.13;5088777;28;45515;-79
2023/06/30 06:20:10;;;;;;;;;6.00;6.00;;;;;20.88;52.96;101073.09;5099146;27;45543;-77
2023/06/30 06:22:35;;;;;;;;;9.00;8.00;;;;;20.92;52.82;101074.88;5071105;28;46991;-75
2023/06/30 06:25:01;;;;;;;;;5.00;5.00;;;;;20.78;51.89;101056.00;5070023;28;45078;-75
2023/06/30 06:27:28;;;;;;;;;4.33;4.33;;;;;20.99;51.92;101094.72;5077319;28;45560;-79
2023/06/30 06:29:54;;;;;;;;;9.00;6.33;;;;;21.02;51.54;101091.06;5073455;27;45323;-76
2023/06/30 06:32:19;;;;;;;;;6.00;4.00;;;;;20.92;51.86;101092.97;5079331;28;45582;-78
2023/06/30 06:34:45;;;;;;;;;7.33;6.00;;;;;20.79;51.45;101079.53;5087688;27;45102;-77
2023/06/30 06:37:11;;;;;;;;;5.00;5.00;;;;;20.90;51.28;101098.41;5086194;27;45040;-76
2023/06/30 06:39:36;;;;;;;;;8.00;6.00;;;;;20.94;51.37;101110.19;5074815;28;45055;-76
2023/06/30 06:42:02;;;;;;;;;6.33;5.67;;;;;20.90;51.59;101086.66;5087796;28;45484;-74
2023/06/30 06:44:27;;;;;;;;;5.00;5.00;;;;;21.06;51.22;101106.44;5090985;27;44812;-79
2023/06/30 06:47:31;;;;;;;;;6.67;5.67;;;;;21.07;50.29;101098.25;5087998;28;45594;-77
2023/06/30 06:49:57;;;;;;;;;5.00;4.00;;;;;21.24;49.57;101110.75;5067770;28;45166;-76
2023/06/30 06:52:22;;;;;;;;;4.67;4.67;;;;;21.06;49.28;101072.00;5074627;28;45548;-78
2023/06/30 06:54:47;;;;;;;;;3.00;3.00;;;;;21.36;49.15;101116.03;5083414;27;45874;-73
2023/06/30 06:57:13;;;;;;;;;7.00;5.00;;;;;21.33;48.89;101099.75;5085414;28;45222;-75
2023/06/30 06:59:38;;;;;;;;;3.00;3.00;;;;;21.50;48.45;101107.75;5089050;27;45061;-73
2023/06/30 07:02:04;;;;;;;;;4.33;3.00;;;;;21.40;48.61;101097.84;5066367;28;46931;-78
2023/06/30 07:04:30;;;;;;;;;4.00;4.00;;;;;21.28;49.03;101083.53;5087983;28;44801;-80
2023/06/30 07:06:55;;;;;;;;;8.33;5.00;;;;;21.43;49.16;101109.59;5093222;28;45226;-77
2023/06/30 07:09:20;;;;;;;;;5.00;5.00;;;;;21.38;49.58;101089.72;5090072;27;44871;-77
2023/06/30 07:11:46;;;;;;;;;4.00;4.00;;;;;21.34;48.57;101085.25;5081642;28;45356;-79
2023/06/30 07:14:11;;;;;;;;;6.00;5.00;;;;;21.42;48.07;101090.59;5084483;28;45010;-80
2023/06/30 07:16:37;;;;;;;;;3.33;3.33;;;;;21.45;48.10;101099.59;5088987;28;45102;-79
2023/06/30 07:19:03;;;;;;;;;5.33;5.33;;;;;21.58;48.14;101100.38;5086616;28;44901;-81
2023/06/30 07:21:28;;;;;;;;;4.00;4.00;;;;;21.61;48.20;101111.19;5069450;28;45825;-76
2023/06/30 07:23:53;;;;;;;;;5.00;3.67;;;;;21.67;47.73;101116.56;5066955;28;45121;-76
2023/06/30 07:26:19;;;;;;;;;5.67;5.67;;;;;21.67;46.38;101113.84;5070759;27;44975;-78
2023/06/30 07:28:47;;;;;;;;;6.33;5.33;;;;;21.52;46.48;101074.16;5073383;28;45353;-77
2023/06/30 07:31:12;;;;;;;;;3.00;3.00;;;;;21.80;44.74;101114.56;5085282;28;46393;-79
2023/06/30 07:33:37;;;;;;;;;4.00;4.00;;;;;21.80;44.22;101103.69;5085133;28;45211;-77
2023/06/30 07:36:03;;;;;;;;;8.67;4.00;;;;;21.98;44.84;101118.84;5093188;28;45012;-79
2023/06/30 07:38:28;;;;;;;;;25.50;24.00;;;;;22.04;45.34;101115.13;5084356;28;44960;-77
2023/06/30 07:40:54;;;;;;;;;14.67;13.33;;;;;22.04;44.71;101091.56;5076517;27;45406;-77
2023/06/30 07:43:19;;;;;;;;;7.00;5.67;;;;;22.31;43.57;101116.56;5090937;27;45087;-75
2023/06/30 07:45:44;;;;;;;;;6.00;4.00;;;;;22.44;43.38;101109.97;5087570;28;45060;-77
2023/06/30 07:48:10;;;;;;;;;6.67;4.67;;;;;22.55;42.96;101107.06;5093694;27;44850;-77
2023/06/30 07:50:35;;;;;;;;;4.00;4.00;;;;;22.56;42.55;101091.63;5097324;28;45126;-80
2023/06/30 07:53:03;;;;;;;;;4.00;3.67;;;;;22.59;41.59;101089.75;5089737;28;52156;-79
2023/06/30 07:55:29;;;;;;;;;4.00;3.67;;;;;22.55;41.06;101046.25;5077308;28;45004;-78
2023/06/30 07:57:54;;;;;;;;;9.67;4.00;;;;;22.38;41.14;101009.34;5093778;28;45058;-75
2023/06/30 08:00:20;;;;;;;;;2.67;2.67;;;;;22.99;39.93;101110.78;5075094;28;46377;-78
2023/06/30 08:02:46;;;;;;;;;10.67;5.67;;;;;23.04;39.73;101116.16;5092036;27;45242;-79
2023/06/30 08:05:12;;;;;;;;;4.00;2.33;;;;;22.93;39.58;101097.31;5090506;27;45031;-78
2023/06/30 08:07:38;;;;;;;;;3.00;3.00;;;;;23.03;39.11;101111.63;5101440;27;45028;-76
2023/06/30 08:10:04;;;;;;;;;2.67;2.67;;;;;23.01;39.30;101108.03;5094651;27;45188;-77
2023/06/30 08:12:29;;;;;;;;;4.00;3.00;;;;;23.15;39.30;101116.00;5102976;27;44982;-72
2023/06/30 08:14:55;;;;;;;;;5.33;3.00;;;;;23.08;38.58;101117.94;5090285;28;45164;-77
2023/06/30 08:17:20;;;;;;;;;5.33;3.67;;;;;23.03;38.47;101099.84;5080556;28;45318;-73
2023/06/30 08:19:46;;;;;;;;;4.00;4.00;;;;;23.16;37.66;101106.88;5078882;28;45305;-78
2023/06/30 08:22:16;;;;;;;;;3.67;3.67;;;;;23.12;36.87;101113.31;5083223;27;44929;-78
2023/06/30 08:24:43;;;;;;;;;3.00;3.00;;;;;22.91;36.42;101088.22;5088671;28;45263;-78
2023/06/30 08:27:08;;;;;;;;;4.00;4.00;;;;;22.97;36.44;101095.41;5085339;28;45162;-78
2023/06/30 08:29:34;;;;;;;;;1.00;1.00;;;;;22.69;36.56;101040.56;5067749;28;47281;-75
2023/06/30 08:31:59;;;;;;;;;3.00;3.00;;;;;23.01;35.83;101110.75;5091104;28;45106;-79
2023/06/30 08:34:26;;;;;;;;;12.00;7.33;;;;;23.04;35.57;101088.91;5071248;28;45084;-77
2023/06/30 08:36:53;;;;;;;;;7.00;4.00;;;;;23.23;34.96;101108.56;5083948;27;45082;-74
2023/06/30 08:39:18;;;;;;;;;7.33;6.00;;;;;23.23;34.55;101083.09;5090195;27;45640;-74
2023/06/30 08:41:45;;;;;;;;;3.00;3.00;;;;;23.43;34.14;101102.69;5067210;28;45040;-77
2023/06/30 08:44:11;;;;;;;;;3.67;2.00;;;;;23.52;33.94;101099.75;5093800;28;45362;-78
2023/06/30 08:46:36;;;;;;;;;3.00;2.00;;;;;23.14;34.49;101032.41;5092900;28;45185;-79
2023/06/30 08:49:03;;;;;;;;;4.00;4.00;;;;;23.44;34.40;101041.75;5070066;28;46770;-80
2023/06/30 08:51:29;;;;;;;;;2.00;2.00;;;;;23.77;33.54;101090.13;5089396;27;45016;-75
2023/06/30 08:53:56;;;;;;;;;4.33;4.00;;;;;23.60;33.18;101055.94;5087139;27;45503;-81
2023/06/30 08:56:25;;;;;;;;;3.00;3.00;;;;;23.96;33.49;101096.97;5085873;28;45222;-75
2023/06/30 08:58:50;;;;;;;;;3.33;2.00;;;;;23.99;32.38;101066.91;5079120;28;45998;-77
2023/06/30 09:01:16;;;;;;;;;3.67;3.00;;;;;23.96;32.19;101058.78;5081953;28;45060;-78
2023/06/30 09:03:42;;;;;;;;;4.00;3.00;;;;;24.20;32.60;101080.94;5092201;27;45106;-79
2023/06/30 09:06:11;;;;;;;;;4.00;2.67;;;;;24.28;33.00;101084.38;5081677;28;45083;-79
2023/06/30 09:08:56;;;;;;;;;4.33;3.00;;;;;24.19;32.62;101060.06;5089720;27;45772;-80
2023/06/30 09:11:24;;;;;;;;;5.00;5.00;;;;;24.23;33.20;101053.56;5095534;28;45233;-79
2023/06/30 09:13:53;;;;;;;;;3.33;3.33;;;;;24.22;32.38;101032.63;5085605;28;45067;-78
2023/06/30 09:16:19;;;;;;;;;3.33;3.00;;;;;24.39;32.55;101071.34;5077232;28;44967;-78
2023/06/30 09:18:48;;;;;;;;;9.67;5.67;;;;;24.47;32.21;101068.44;5069247;28;46334;-78
2023/06/30 09:21:13;;;;;;;;;7.67;5.00;;;;;24.52;31.91;101069.19;5072429;28;45163;-78
2023/06/30 09:23:39;;;;;;;;;4.67;1.33;;;;;24.52;32.12;101054.63;5095392;28;44942;-77
2023/06/30 09:26:13;;;;;;;;;2.00;2.00;;;;;24.68;32.37;101069.69;5058753;28;45043;-79
2023/06/30 09:28:44;;;;;;;;;1.67;1.67;;;;;24.81;31.59;101070.25;5091022;28;45504;-78
2023/06/30 09:31:12;;;;;;;;;1.00;0.00;;;;;24.63;31.81;101071.66;5075590;27;45052;-76
2023/06/30 09:33:42;;;;;;;;;3.33;3.33;;;;;24.56;31.81;101072.78;5085087;28;45142;-77
2023/06/30 09:36:15;;;;;;;;;4.00;4.00;;;;;24.28;31.93;101027.91;5090703;28;45266;-78
2023/06/30 09:38:40;;;;;;;;;4.00;4.00;;;;;24.61;32.33;101073.53;5090015;27;45598;-78
2023/06/30 09:41:19;;;;;;;;;4.00;4.00;;;;;24.53;32.39;101031.84;5082383;27;45675;-76
2023/06/30 09:43:44;;;;;;;;;11.67;9.67;;;;;24.43;32.42;100995.69;5072375;27;45343;-77
2023/06/30 09:46:11;;;;;;;;;5.00;5.00;;;;;24.99;32.08;101075.19;5074088;27;45612;-74
2023/06/30 09:48:39;;;;;;;;;3.67;3.67;;;;;24.93;31.87;101038.94;5057348;28;46161;-77
2023/06/30 09:51:09;;;;;;;;;2.00;2.00;;;;;24.98;31.46;101039.75;5061476;28;46081;-77
2023/06/30 09:53:45;;;;;;;;;2.00;2.00;;;;;25.23;31.80;101067.25;5072615;28;45556;-78
2023/06/30 09:56:22;;;;;;;;;2.33;2.33;;;;;25.15;31.79;101033.78;5075844;27;45660;-80
2023/06/30 09:58:48;;;;;;;;;7.33;6.00;;;;;25.36;31.71;101059.63;5075403;28;45579;-78
2023/06/30 10:01:19;;;;;;;;;5.00;3.67;;;;;25.24;32.38;101038.06;5069835;28;45664;-79
2023/06/30 10:03:49;;;;;;;;;4.00;4.00;;;;;25.15;32.44;101020.97;5056030;28;45538;-76
2023/06/30 10:06:25;;;;;;;;;3.00;3.00;;;;;25.20;32.21;101040.00;5065800;28;45472;-80
2023/06/30 10:08:51;;;;;;;;;4.67;4.00;;;;;24.93;32.85;100989.75;5069595;28;46374;-77
2023/06/30 10:11:25;;;;;;;;;4.67;4.67;;;;;25.32;33.17;101049.69;5069526;28;45636;-73
2023/06/30 10:13:58;;;;;;;;;5.00;3.00;;;;;25.29;33.06;101022.44;5070214;28;45370;-80
2023/06/30 10:16:24;;;;;;;;;12.00;9.67;;;;;25.56;33.36;101037.13;5073758;28;45423;-78
2023/06/30 10:18:50;;;;;;;;;10.33;9.00;;;;;25.62;33.15;101030.53;5079242;27;46031;-78
2023/06/30 10:21:16;;;;;;;;;7.67;7.00;;;;;25.07;32.89;100934.69;5065718;28;45416;-78
2023/06/30 10:23:47;;;;;;;;;21.33;17.33;;;;;25.41;33.13;100991.06;5060496;28;45430;-78
2023/06/30 10:26:17;;;;;;;;;5.67;5.67;;;;;25.49;32.85;100986.25;5067383;28;45356;-77
2023/06/30 10:28:43;;;;;;;;;5.67;5.67;;;;;25.87;32.25;101037.03;5057366;28;46202;-80
2023/06/30 10:31:09;;;;;;;;;7.00;6.33;;;;;25.72;32.26;101019.25;5071441;27;45603;-79
2023/06/30 10:33:35;;;;;;;;;7.00;6.33;;;;;25.72;32.48;101010.13;5076850;27;45281;-78
2023/06/30 10:36:05;;;;;;;;;5.00;5.00;;;;;25.58;32.34;100983.22;5048171;28;45699;-77
2023/06/30 10:38:34;;;;;;;;;10.33;7.00;;;;;25.30;31.83;100937.59;5062270;28;47357;-75
2023/06/30 10:41:20;;;;;;;;;6.33;4.00;;;;;25.82;31.41;101033.56;5070528;28;45540;-77
2023/06/30 10:44:04;;;;;;;;;4.00;3.33;;;;;25.86;30.48;101034.34;5081080;27;45321;-74
2023/06/30 10:46:52;;;;;;;;;6.33;5.00;;;;;25.78;30.60;101034.56;5061223;28;45422;-78
2023/06/30 10:49:18;;;;;;;;;5.00;5.00;;;;;25.79;30.95;101030.00;5077742;28;46285;-78
2023/06/30 10:51:49;;;;;;;;;3.33;3.33;;;;;25.78;30.98;101030.97;5071839;27;45334;-74
2023/06/30 10:54:38;;;;;;;;;3.00;3.00;;;;;25.77;31.11;101040.09;5050142;27;45576;-78
2023/06/30 10:57:15;;;;;;;;;4.00;4.00;;;;;25.73;31.41;101036.56;5076128;27;45395;-76
2023/06/30 10:59:45;;;;;;;;;4.00;4.00;;;;;25.66;32.18;101033.13;5067639;28;47704;-78
2023/06/30 11:02:17;;;;;;;;;5.00;4.67;;;;;25.60;32.78;101047.00;5079696;28;45537;-77
2023/06/30 11:04:44;;;;;;;;;6.67;4.00;;;;;25.51;32.69;101040.00;5077094;27;45454;-79
2023/06/30 11:07:15;;;;;;;;;6.67;4.00;;;;;25.40;33.41;101041.28;5068481;28;45563;-75
2023/06/30 11:09:47;;;;;;;;;4.00;4.00;;;;;25.30;33.64;101047.00;5075805;27;45647;-77
2023/06/30 11:12:25;;;;;;;;;7.00;5.00;;;;;25.01;33.84;101009.56;5073230;28;45406;-72
2023/06/30 11:15:01;;;;;;;;;5.67;4.33;;;;;25.21;33.37;101033.59;5063145;28;45535;-78
2023/06/30 11:17:52;;;;;;;;;4.50;4.50;;;;;25.31;33.82;101037.88;5076805;27;45521;-79
2023/06/30 11:20:26;;;;;;;;;2.67;2.67;;;;;25.50;33.49;101029.97;5053711;28;47599;-77
2023/06/30 11:23:00;;;;;;;;;1.67;1.67;;;;;25.62;33.46;101027.81;5074962;28;45388;-76
2023/06/30 11:25:29;;;;;;;;;3.00;2.67;;;;;25.64;33.21;101034.13;5057947;28;45424;-76